Time;durP1;ratioP1;P1;durP2;ratioP2;P2;SDS_P1;SDS_P2;PMS_P1;PMS_P2;Temp;Humidity;BMP_temperature;BMP_pressure;BME280_temperature;BME280_humidity;BME280_pressure;Samples;Min_cycle;Max_cycle;Signal;HPM_P1;HPM_P2
2023/04/27 00:01:50;;;;;;;10.25;6.50;;;2.10;99.90;;;;;;5044693;28;20115;-71
2023/04/27 00:04:16;;;;;;;13.90;9.40;;;2.10;99.90;;;;;;5059792;28;20159;-72
2023/04/27 00:06:42;;;;;;;12.75;10.43;;;2.00;99.90;;;;;;5051685;28;20078;-72
2023/04/27 00:09:08;;;;;;;10.15;7.90;;;2.10;99.90;;;;;;5074145;28;20040;-72
2023/04/27 00:11:34;;;;;;;10.75;8.45;;;2.00;99.90;;;;;;5045826;28;20044;-72
2023/04/27 00:14:00;;;;;;;11.47;8.07;;;1.90;99.90;;;;;;5042861;28;20051;-72
2023/04/27 00:16:26;;;;;;;10.35;8.13;;;1.90;99.90;;;;;;5053065;28;20048;-72
2023/04/27 00:18:51;;;;;;;12.38;8.93;;;1.90;99.90;;;;;;5073388;28;20403;-72
2023/04/27 00:21:17;;;;;;;11.00;8.20;;;1.90;99.90;;;;;;5060214;28;20060;-72
2023/04/27 00:23:43;;;;;;;11.50;9.17;;;1.80;99.90;;;;;;5040723;28;20793;-72
2023/04/27 00:26:09;;;;;;;9.93;7.38;;;1.80;99.90;;;;;;5077869;28;20052;-72
2023/04/27 00:28:35;;;;;;;10.60;7.97;;;1.80;99.90;;;;;;5074901;28;20043;-72
2023/04/27 00:31:02;;;;;;;9.10;7.13;;;1.80;99.90;;;;;;5066200;28;20043;-72
2023/04/27 00:33:28;;;;;;;9.30;6.60;;;1.80;99.90;;;;;;5043679;28;21320;-72
2023/04/27 00:35:54;;;;;;;9.23;7.50;;;1.70;99.90;;;;;;5056039;28;20433;-72
2023/04/27 00:38:20;;;;;;;11.07;7.55;;;1.70;99.90;;;;;;5056696;28;20044;-72
2023/04/27 00:40:45;;;;;;;10.97;7.40;;;1.70;99.90;;;;;;5046033;28;20356;-72
2023/04/27 00:43:11;;;;;;;12.40;8.07;;;1.70;99.90;;;;;;5042996;28;20049;-72
2023/04/27 00:45:42;;;;;;;11.20;8.50;;;1.60;99.90;;;;;;5073971;28;20051;-72
2023/04/27 00:48:09;;;;;;;11.13;7.73;;;1.60;99.90;;;;;;5059057;28;20576;-72
2023/04/27 00:50:37;;;;;;;10.90;7.82;;;1.60;99.90;;;;;;5039702;28;20075;-72
2023/04/27 00:53:05;;;;;;;10.90;7.60;;;1.60;99.90;;;;;;5052055;28;20052;-72
2023/04/27 00:55:31;;;;;;;8.97;7.10;;;1.60;99.90;;;;;;5052840;28;20040;-72
2023/04/27 00:57:56;;;;;;;10.97;8.07;;;1.60;99.90;;;;;;5070502;28;20040;-72
2023/04/27 01:00:22;;;;;;;9.43;7.68;;;1.60;99.90;;;;;;5058585;28;20094;-72
2023/04/27 01:02:49;;;;;;;12.27;8.63;;;1.60;99.90;;;;;;5071898;28;20078;-72
2023/04/27 01:05:15;;;;;;;10.73;7.60;;;1.60;99.90;;;;;;5071918;28;20600;-72
2023/04/27 01:07:41;;;;;;;9.90;7.87;;;1.60;99.90;;;;;;5054935;28;20093;-72
2023/04/27 01:10:07;;;;;;;10.90;9.10;;;1.60;99.90;;;;;;5068455;28;20052;-72
2023/04/27 01:12:33;;;;;;;11.37;8.40;;;1.60;99.90;;;;;;5070638;28;20495;-72
2023/04/27 01:14:59;;;;;;;12.52;8.35;;;1.50;99.90;;;;;;5051285;28;20048;-72
2023/04/27 01:17:25;;;;;;;10.33;8.20;;;1.50;99.90;;;;;;5048700;28;20405;-72
2023/04/27 01:19:54;;;;;;;9.70;8.17;;;1.50;99.90;;;;;;5056891;28;20036;-72
2023/04/27 01:22:20;;;;;;;10.57;8.50;;;1.50;99.90;;;;;;5072923;28;20049;-72
2023/04/27 01:24:46;;;;;;;11.17;8.63;;;1.50;99.90;;;;;;5071006;28;20075;-72
2023/04/27 01:27:12;;;;;;;14.70;9.90;;;1.50;99.90;;;;;;5060245;28;20440;-72
2023/04/27 01:29:39;;;;;;;10.33;9.23;;;1.40;99.90;;;;;;5053231;28;20070;-72
2023/04/27 01:32:05;;;;;;;19.10;13.20;;;1.50;99.90;;;;;;5058850;28;20033;-72
2023/04/27 01:34:31;;;;;;;16.63;12.07;;;1.40;99.90;;;;;;5067595;28;20568;-72
2023/04/27 01:36:57;;;;;;;14.80;9.50;;;1.40;99.90;;;;;;5035024;28;20052;-72
2023/04/27 01:39:22;;;;;;;12.00;9.93;;;1.30;99.90;;;;;;5053822;28;20048;-71
2023/04/27 01:41:48;;;;;;;12.57;10.00;;;1.30;99.90;;;;;;5072325;28;20040;-72
2023/04/27 01:44:14;;;;;;;11.33;9.33;;;1.30;99.90;;;;;;5059440;28;20044;-71
2023/04/27 01:46:40;;;;;;;11.43;9.17;;;1.30;99.90;;;;;;5054583;28;20072;-72
2023/04/27 01:49:08;;;;;;;11.17;9.80;;;1.20;99.90;;;;;;5057896;28;20100;-72
2023/04/27 01:51:35;;;;;;;11.67;9.50;;;1.20;99.90;;;;;;5052291;28;20037;-72
2023/04/27 01:54:00;;;;;;;12.87;9.67;;;1.20;99.90;;;;;;5030899;28;20084;-72
2023/04/27 01:56:26;;;;;;;13.30;10.80;;;1.20;99.90;;;;;;5055321;28;20052;-72
2023/04/27 01:58:52;;;;;;;15.07;12.37;;;1.20;99.90;;;;;;5050518;28;20040;-71
2023/04/27 02:01:18;;;;;;;13.23;10.00;;;1.10;99.90;;;;;;5055264;28;20050;-72
2023/04/27 02:03:44;;;;;;;14.27;10.47;;;1.20;99.90;;;;;;5060526;28;20044;-72
2023/04/27 02:06:09;;;;;;;13.87;10.70;;;1.10;99.90;;;;;;5046197;28;20347;-72
2023/04/27 02:08:35;;;;;;;15.13;12.00;;;1.10;99.90;;;;;;5066123;28;20477;-72
2023/04/27 02:11:01;;;;;;;19.17;13.93;;;1.00;99.90;;;;;;5059566;28;20044;-72
2023/04/27 02:13:27;;;;;;;20.20;13.60;;;1.00;99.90;;;;;;5060967;28;20107;-72
2023/04/27 02:15:54;;;;;;;11.37;10.03;;;1.00;99.90;;;;;;5050243;28;21063;-72
2023/04/27 02:18:20;;;;;;;12.87;10.70;;;1.00;99.90;;;;;;5067838;28;20540;-71
2023/04/27 02:20:46;;;;;;;13.83;10.63;;;1.00;99.90;;;;;;5046327;28;20084;-72
2023/04/27 02:23:12;;;;;;;12.67;10.87;;;1.00;99.90;;;;;;5054148;28;20055;-72
2023/04/27 02:25:41;;;;;;;13.43;10.73;;;1.00;99.90;;;;;;5065824;28;20056;-72
2023/04/27 02:28:07;;;;;;;12.43;9.67;;;1.00;99.90;;;;;;5054251;28;20044;-72
2023/04/27 02:30:33;;;;;;;11.47;10.27;;;1.00;99.90;;;;;;5064156;28;20070;-72
2023/04/27 02:33:02;;;;;;;11.67;10.47;;;1.00;99.90;;;;;;5070049;28;20517;-72
2023/04/27 02:35:28;;;;;;;12.37;10.40;;;1.00;99.90;;;;;;5043039;28;20048;-72
2023/04/27 02:37:54;;;;;;;13.40;10.60;;;1.00;99.90;;;;;;5041194;28;20052;-72
2023/04/27 02:40:19;;;;;;;12.90;10.97;;;1.00;99.90;;;;;;5049815;28;20040;-72
2023/04/27 02:42:45;;;;;;;14.07;11.07;;;0.90;99.90;;;;;;5059249;28;20421;-72
2023/04/27 02:45:11;;;;;;;16.00;11.87;;;0.90;99.90;;;;;;5059331;28;20086;-72
2023/04/27 02:47:37;;;;;;;14.00;11.10;;;0.90;99.90;;;;;;5044395;28;20083;-72
2023/04/27 02:50:03;;;;;;;14.47;12.10;;;0.90;99.90;;;;;;5058729;28;20052;-72
2023/04/27 02:52:32;;;;;;;16.17;12.93;;;0.90;99.90;;;;;;5077527;28;20105;-72
2023/04/27 02:54:58;;;;;;;16.47;12.60;;;0.90;99.90;;;;;;5063937;28;20472;-72
2023/04/27 02:57:27;;;;;;;13.50;11.33;;;0.90;99.90;;;;;;5035297;28;20089;-72
2023/04/27 02:59:56;;;;;;;16.90;12.90;;;0.90;99.90;;;;;;5066824;28;20071;-72
2023/04/27 03:02:21;;;;;;;13.97;12.03;;;0.90;99.90;;;;;;5063022;28;20052;-72
2023/04/27 03:04:52;;;;;;;16.00;11.97;;;0.90;99.90;;;;;;5057259;28;20047;-72
2023/04/27 03:07:18;;;;;;;15.77;12.30;;;0.90;99.90;;;;;;5067718;28;20056;-72
2023/04/27 03:09:44;;;;;;;13.67;11.30;;;0.90;99.90;;;;;;5068300;28;20040;-72
2023/04/27 03:12:09;;;;;;;14.93;11.83;;;0.90;99.90;;;;;;5070254;28;20048;-72
2023/04/27 03:14:35;;;;;;;13.27;11.23;;;0.90;99.90;;;;;;5051185;28;20040;-72
2023/04/27 03:17:02;;;;;;;15.60;12.20;;;0.90;99.90;;;;;;5046613;28;20040;-72
2023/04/27 03:19:28;;;;;;;13.67;11.40;;;0.90;99.90;;;;;;5057051;28;20048;-72
2023/04/27 03:21:57;;;;;;;13.40;11.70;;;0.80;99.90;;;;;;5062268;28;20057;-72
2023/04/27 03:24:24;;;;;;;14.57;11.37;;;0.80;99.90;;;;;;5069061;28;20552;-72
2023/04/27 03:26:51;;;;;;;15.43;12.60;;;0.70;99.90;;;;;;5042798;28;20786;-72
2023/04/27 03:29:17;;;;;;;17.70;13.20;;;0.70;99.90;;;;;;5056279;28;20127;-72
2023/04/27 03:31:43;;;;;;;16.40;12.47;;;0.70;99.90;;;;;;5058899;28;20124;-72
2023/04/27 03:34:09;;;;;;;12.73;10.77;;;0.70;99.90;;;;;;5051757;28;20132;-72
2023/04/27 03:36:35;;;;;;;11.23;10.00;;;0.70;99.90;;;;;;5035814;28;20520;-72
2023/04/27 03:39:00;;;;;;;15.43;10.70;;;0.70;99.90;;;;;;5073534;28;20036;-72
2023/04/27 03:41:26;;;;;;;12.30;11.00;;;0.80;99.90;;;;;;5056180;28;20122;-71
2023/04/27 03:43:52;;;;;;;12.57;11.27;;;0.70;99.90;;;;;;5050768;28;20163;-72
2023/04/27 03:46:18;;;;;;;14.20;11.03;;;0.70;99.90;;;;;;5047550;28;20054;-72
2023/04/27 03:48:45;;;;;;;14.87;11.20;;;0.70;99.90;;;;;;5039957;28;20113;-72
2023/04/27 03:51:12;;;;;;;13.97;11.07;;;0.70;99.90;;;;;;5052038;28;20052;-72
2023/04/27 03:53:37;;;;;;;14.03;11.37;;;0.80;99.90;;;;;;5050634;28;20518;-72
2023/04/27 03:56:03;;;;;;;14.03;12.43;;;0.70;99.90;;;;;;5080655;28;20040;-72
2023/04/27 03:58:29;;;;;;;12.83;11.30;;;0.70;99.90;;;;;;5054620;28;20060;-72
2023/04/27 04:00:56;;;;;;;12.90;11.20;;;0.70;99.90;;;;;;5058433;28;20038;-72
2023/04/27 04:03:21;;;;;;;16.00;11.30;;;0.60;99.90;;;;;;5048912;28;20136;-72
2023/04/27 04:05:47;;;;;;;15.10;11.97;;;0.70;99.90;;;;;;5058259;28;20123;-72
2023/04/27 04:08:13;;;;;;;15.77;12.20;;;0.60;99.90;;;;;;5053136;28;20047;-72
2023/04/27 04:10:39;;;;;;;17.60;11.97;;;0.50;99.90;;;;;;5042068;28;20040;-72
2023/04/27 04:13:04;;;;;;;15.27;11.43;;;0.50;99.90;;;;;;5062461;28;20048;-72
2023/04/27 04:15:30;;;;;;;14.50;11.93;;;0.50;99.90;;;;;;5043695;28;20178;-72
2023/04/27 04:17:56;;;;;;;13.17;11.60;;;0.50;99.90;;;;;;5056094;28;20048;-72
2023/04/27 04:20:22;;;;;;;13.67;11.77;;;0.50;99.90;;;;;;5057174;28;20040;-73
2023/04/27 04:22:48;;;;;;;16.47;13.13;;;0.50;99.90;;;;;;5056259;28;20087;-72
2023/04/27 04:25:13;;;;;;;15.70;13.00;;;0.60;99.90;;;;;;5050245;28;20592;-72
2023/04/27 04:27:40;;;;;;;14.37;12.87;;;0.60;99.90;;;;;;5089927;28;20048;-72
2023/04/27 04:30:06;;;;;;;15.27;12.57;;;0.60;99.90;;;;;;5051800;28;20052;-72
2023/04/27 04:32:32;;;;;;;13.40;11.77;;;0.60;99.90;;;;;;5072028;28;20055;-72
2023/04/27 04:35:00;;;;;;;13.90;12.33;;;0.60;99.90;;;;;;5074688;28;20051;-72
2023/04/27 04:37:26;;;;;;;14.50;11.77;;;0.60;99.90;;;;;;5064177;28;20410;-72
2023/04/27 04:39:52;;;;;;;18.23;14.30;;;0.60;99.90;;;;;;5062115;28;20044;-72
2023/04/27 04:42:18;;;;;;;16.27;14.03;;;0.60;99.90;;;;;;5037941;28;20043;-73
2023/04/27 04:44:43;;;;;;;15.77;13.03;;;0.60;99.90;;;;;;5042665;28;20080;-72
2023/04/27 04:47:12;;;;;;;16.93;12.83;;;0.60;99.90;;;;;;5051176;28;20501;-72
2023/04/27 04:49:38;;;;;;;14.47;12.90;;;0.70;99.90;;;;;;5056533;28;20036;-72
2023/04/27 04:52:04;;;;;;;18.63;14.43;;;0.70;99.90;;;;;;5056734;28;20046;-73
2023/04/27 04:54:30;;;;;;;15.37;12.90;;;0.70;99.90;;;;;;5051884;28;20186;-72
2023/04/27 04:56:57;;;;;;;16.17;13.80;;;0.70;99.90;;;;;;5040756;28;20050;-73
2023/04/27 04:59:26;;;;;;;16.63;13.27;;;0.80;99.90;;;;;;5067439;28;20052;-72
2023/04/27 05:01:55;;;;;;;18.63;13.13;;;0.80;99.90;;;;;;5070043;28;20036;-72
2023/04/27 05:04:21;;;;;;;16.13;13.77;;;0.80;99.90;;;;;;5053091;28;20048;-72
2023/04/27 05:06:47;;;;;;;16.47;14.33;;;0.90;99.90;;;;;;5027549;28;20051;-72
2023/04/27 05:09:13;;;;;;;17.53;14.47;;;0.80;99.90;;;;;;5053831;28;20052;-72
2023/04/27 05:11:39;;;;;;;17.17;13.60;;;0.80;99.90;;;;;;5074307;28;20380;-72
2023/04/27 05:14:04;;;;;;;15.83;14.13;;;0.80;99.90;;;;;;5037870;28;20044;-72
2023/04/27 05:16:30;;;;;;;15.57;12.50;;;0.80;99.90;;;;;;5068682;28;20036;-73
2023/04/27 05:18:56;;;;;;;15.10;12.97;;;0.80;99.90;;;;;;5043670;28;20055;-72
2023/04/27 05:21:22;;;;;;;16.37;13.77;;;0.90;99.90;;;;;;5051715;28;20044;-72
2023/04/27 05:23:47;;;;;;;15.17;13.50;;;1.00;99.90;;;;;;5053302;28;20037;-72
2023/04/27 05:26:15;;;;;;;16.37;13.83;;;1.00;99.90;;;;;;5068143;28;20338;-72
2023/04/27 05:28:41;;;;;;;16.27;14.33;;;1.00;99.90;;;;;;5063217;28;20099;-72
2023/04/27 05:31:07;;;;;;;16.20;14.07;;;1.10;99.90;;;;;;5058577;28;20044;-72
2023/04/27 05:33:32;;;;;;;15.43;13.83;;;1.10;99.90;;;;;;5067822;28;20044;-72
2023/04/27 05:35:58;;;;;;;18.27;12.97;;;1.10;99.90;;;;;;5075070;28;20063;-72
2023/04/27 05:38:25;;;;;;;15.30;12.90;;;1.20;99.90;;;;;;5057168;28;20499;-72
2023/04/27 05:40:57;;;;;;;15.60;13.53;;;1.30;99.90;;;;;;5035210;28;20552;-73
2023/04/27 05:43:24;;;;;;;16.23;14.10;;;1.40;99.90;;;;;;5047855;28;20036;-72
2023/04/27 05:45:50;;;;;;;18.00;13.63;;;1.50;99.90;;;;;;5053165;28;20040;-72
2023/04/27 05:48:16;;;;;;;17.83;14.17;;;1.60;99.90;;;;;;5073708;28;20044;-72
2023/04/27 05:50:42;;;;;;;18.07;14.27;;;1.80;99.90;;;;;;5074466;28;20043;-72
2023/04/27 05:53:08;;;;;;;15.53;13.83;;;1.80;99.90;;;;;;5055597;28;20049;-72
2023/04/27 05:55:34;;;;;;;16.10;14.10;;;1.90;99.90;;;;;;5053424;28;20063;-72
2023/04/27 05:58:00;;;;;;;16.47;14.53;;;1.90;99.90;;;;;;5042238;28;20356;-72
2023/04/27 06:00:27;;;;;;;17.43;14.03;;;2.00;99.90;;;;;;5071628;28;20056;-72
2023/04/27 06:02:53;;;;;;;18.33;14.30;;;2.00;99.90;;;;;;5073229;28;20057;-72
2023/04/27 06:05:20;;;;;;;18.40;13.83;;;2.10;99.90;;;;;;5040373;28;20131;-72
2023/04/27 06:07:46;;;;;;;16.23;14.53;;;2.20;99.90;;;;;;5051493;28;20037;-73
2023/04/27 06:10:12;;;;;;;16.90;13.57;;;2.30;99.90;;;;;;5071510;28;20052;-72
2023/04/27 06:12:38;;;;;;;16.27;13.90;;;2.40;99.90;;;;;;5053067;28;20078;-73
2023/04/27 06:15:07;;;;;;;15.63;13.30;;;2.50;99.90;;;;;;5056845;28;20036;-73
2023/04/27 06:17:38;;;;;;;17.60;14.33;;;2.60;99.90;;;;;;5067837;28;20043;-72
2023/04/27 06:20:08;;;;;;;;;;;2.80;99.90;;;;;;5070878;28;20070;-72
2023/04/27 06:22:37;;;;;;;14.07;12.60;;;2.90;99.90;;;;;;5058713;28;20003;-72
2023/04/27 06:25:04;;;;;;;13.80;12.40;;;3.10;99.90;;;;;;5062881;28;20383;-72
2023/04/27 06:27:30;;;;;;;12.97;11.30;;;3.30;99.90;;;;;;5052879;28;20403;-72
2023/04/27 06:29:57;;;;;;;13.30;11.68;;;3.50;99.90;;;;;;5046944;28;20055;-73
2023/04/27 06:32:22;;;;;;;13.75;11.85;;;3.60;99.90;;;;;;5048723;28;20041;-72
2023/04/27 06:34:48;;;;;;;13.93;12.02;;;3.90;99.90;;;;;;5054344;28;20050;-73
2023/04/27 06:37:15;;;;;;;13.77;12.20;;;4.10;99.90;;;;;;5064948;28;20089;-72
2023/04/27 06:39:43;;;;;;;13.50;11.35;;;4.30;99.90;;;;;;5067349;28;20079;-73
2023/04/27 06:42:11;;;;;;;13.13;11.30;;;4.50;99.90;;;;;;5072591;28;20040;-72
2023/04/27 06:44:38;;;;;;;15.82;11.32;;;4.60;99.90;;;;;;5052002;28;20036;-73
2023/04/27 06:47:03;;;;;;;11.82;10.63;;;4.80;99.90;;;;;;5067357;28;20042;-73
2023/04/27 06:49:29;;;;;;;11.32;9.93;;;5.00;99.90;;;;;;5038473;28;20464;-72
2023/04/27 06:51:55;;;;;;;11.80;9.85;;;5.10;99.90;;;;;;5056463;28;20050;-72
2023/04/27 06:54:21;;;;;;;10.65;9.52;;;5.30;99.90;;;;;;5080853;28;20125;-73
2023/04/27 06:56:47;;;;;;;14.43;9.15;;;5.50;99.90;;;;;;5044041;28;20032;-72
2023/04/27 06:59:13;;;;;;;11.73;8.98;;;5.60;99.90;;;;;;5059954;28;20056;-72
2023/04/27 07:01:38;;;;;;;9.73;8.45;;;5.80;99.90;;;;;;5074365;28;20241;-72
2023/04/27 07:04:05;;;;;;;11.30;8.00;;;5.90;99.90;;;;;;5055942;28;20037;-72
2023/04/27 07:06:31;;;;;;;10.20;7.53;;;6.10;99.90;;;;;;5081437;28;20778;-72
2023/04/27 07:08:57;;;;;;;10.90;7.68;;;6.20;99.90;;;;;;5039619;28;20472;-72
2023/04/27 07:11:24;;;;;;;10.75;6.90;;;6.30;99.90;;;;;;5075635;28;20541;-72
2023/04/27 07:13:50;;;;;;;10.35;6.80;;;6.50;99.90;;;;;;5060999;28;20049;-72
2023/04/27 07:16:16;;;;;;;11.05;6.82;;;6.70;99.90;;;;;;5070876;28;20105;-72
2023/04/27 07:18:42;;;;;;;11.15;6.88;;;6.80;99.90;;;;;;5081503;28;20059;-72
2023/04/27 07:21:08;;;;;;;9.98;6.40;;;6.90;99.90;;;;;;5038946;28;20059;-72
2023/04/27 07:23:34;;;;;;;7.30;5.65;;;7.10;99.90;;;;;;5080419;28;20037;-72
2023/04/27 07:26:00;;;;;;;8.60;5.43;;;7.30;99.90;;;;;;5058380;28;20495;-72
2023/04/27 07:28:28;;;;;;;10.27;6.38;;;7.40;99.90;;;;;;5038945;28;20067;-72
2023/04/27 07:30:57;;;;;;;6.97;4.80;;;7.60;99.90;;;;;;5077524;28;20093;-72
2023/04/27 07:33:22;;;;;;;6.20;3.65;;;7.80;99.90;;;;;;5032165;28;20077;-72
2023/04/27 07:35:49;;;;;;;5.75;4.00;;;7.90;99.90;;;;;;5054855;28;20036;-72
2023/04/27 07:38:16;;;;;;;7.30;4.18;;;8.10;99.90;;;;;;5074195;28;20509;-70
2023/04/27 07:40:42;;;;;;;6.88;4.20;;;8.20;99.90;;;;;;5061849;28;20040;-71
2023/04/27 07:43:08;;;;;;;5.95;4.25;;;8.30;99.90;;;;;;5057982;28;20048;-71
2023/04/27 07:45:37;;;;;;;6.40;4.00;;;8.50;99.90;;;;;;5055499;28;20108;-71
2023/04/27 07:48:03;;;;;;;8.87;4.83;;;8.70;99.90;;;;;;5053862;28;20054;-71
2023/04/27 07:50:30;;;;;;;8.82;4.85;;;8.80;99.90;;;;;;5077117;28;20400;-71
2023/04/27 07:52:56;;;;;;;7.93;5.25;;;8.90;99.90;;;;;;5072820;28;20048;-71
2023/04/27 07:55:23;;;;;;;7.95;5.10;;;9.00;99.90;;;;;;5072508;28;20046;-71
2023/04/27 07:57:51;;;;;;;6.78;4.43;;;9.20;99.90;;;;;;5072403;28;20441;-71
2023/04/27 08:00:17;;;;;;;6.88;4.60;;;9.30;99.90;;;;;;5068200;28;20060;-71
2023/04/27 08:02:42;;;;;;;7.75;4.93;;;9.50;99.90;;;;;;5055182;28;20032;-70
2023/04/27 08:05:08;;;;;;;6.22;4.50;;;9.50;99.90;;;;;;5041062;28;20066;-71
2023/04/27 08:07:34;;;;;;;7.70;4.32;;;9.70;99.90;;;;;;5039030;28;20485;-71
2023/04/27 08:10:00;;;;;;;6.68;3.80;;;9.80;99.90;;;;;;5057697;28;20053;-71
2023/04/27 08:12:26;;;;;;;5.05;3.42;;;9.90;99.90;;;;;;5044844;28;20039;-71
2023/04/27 08:14:52;;;;;;;5.15;3.30;;;9.90;99.90;;;;;;5033545;28;20056;-71
2023/04/27 08:17:20;;;;;;;5.15;2.30;;;10.00;99.30;;;;;;5047438;28;20040;-71
2023/04/27 08:19:46;;;;;;;5.05;2.80;;;10.00;96.80;;;;;;5070008;28;20127;-71
2023/04/27 08:22:12;;;;;;;4.30;3.05;;;10.00;94.60;;;;;;5049879;28;20053;-70
2023/04/27 08:24:38;;;;;;;8.25;3.72;;;10.10;93.90;;;;;;5072135;28;20502;-72
2023/04/27 08:27:05;;;;;;;5.53;3.33;;;10.20;95.10;;;;;;5072762;28;20051;-72
2023/04/27 08:29:34;;;;;;;5.68;3.10;;;10.30;95.00;;;;;;5071345;28;20040;-71
2023/04/27 08:32:01;;;;;;;5.50;3.47;;;10.40;94.30;;;;;;5057648;28;20040;-71
2023/04/27 08:34:28;;;;;;;6.00;3.00;;;10.50;95.00;;;;;;5074707;28;20054;-71
2023/04/27 08:36:56;;;;;;;6.05;2.97;;;10.70;94.60;;;;;;5054539;28;20048;-71
2023/04/27 08:39:24;;;;;;;5.78;2.92;;;10.80;94.60;;;;;;5055001;28;20086;-71
2023/04/27 08:41:50;;;;;;;5.32;2.88;;;10.90;95.50;;;;;;5055195;28;20466;-71
2023/04/27 08:44:16;;;;;;;4.28;2.80;;;10.90;93.20;;;;;;5069254;28;20315;-71
2023/04/27 08:46:41;;;;;;;6.40;2.63;;;10.90;84.20;;;;;;5078099;28;20122;-71
2023/04/27 08:49:08;;;;;;;4.60;2.83;;;10.90;83.70;;;;;;5035383;28;20127;-71
2023/04/27 08:51:37;;;;;;;5.03;3.05;;;10.80;83.80;;;;;;5058322;28;20063;-72
2023/04/27 08:54:03;;;;;;;5.35;2.92;;;10.90;85.80;;;;;;5032392;28;20038;-72
2023/04/27 08:56:29;;;;;;;5.32;2.47;;;10.90;86.20;;;;;;5061609;28;20044;-72
2023/04/27 08:58:56;;;;;;;5.53;3.03;;;11.10;87.10;;;;;;5067852;28;20076;-72
2023/04/27 09:01:24;;;;;;;3.97;2.90;;;11.20;84.20;;;;;;5050070;28;20048;-73
2023/04/27 09:03:59;;;;;;;5.10;2.50;;;11.30;82.60;;;;;;5071817;28;20052;-73
2023/04/27 09:06:32;;;;;;;5.90;3.20;;;11.40;82.20;;;;;;5083539;28;20490;-73
2023/04/27 09:08:58;;;;;;;4.72;3.28;;;11.50;81.80;;;;;;5094474;28;20047;-73
2023/04/27 09:11:34;;;;;;;5.57;2.95;;;11.50;79.60;;;;;;5060988;28;20083;-73
2023/04/27 09:14:02;;;;;;;5.07;3.25;;;11.60;81.90;;;;;;5074372;28;20058;-73
2023/04/27 09:16:29;;;;;;;7.25;3.40;;;11.70;81.30;;;;;;5038051;28;20040;-73
2023/04/27 09:18:57;;;;;;;5.40;3.72;;;11.70;79.00;;;;;;5041999;28;20040;-74
2023/04/27 09:21:23;;;;;;;4.80;3.13;;;11.80;77.30;;;;;;5057007;28;20056;-74
2023/04/27 09:23:50;;;;;;;4.88;3.83;;;11.90;75.00;;;;;;5068834;28;20131;-74
2023/04/27 09:26:26;;;;;;;4.72;3.65;;;12.00;75.80;;;;;;5047949;28;20393;-74
2023/04/27 09:28:57;;;;;;;5.75;2.97;;;12.00;75.40;;;;;;5051366;28;20048;-74
2023/04/27 09:31:31;;;;;;;5.25;3.63;;;12.10;74.40;;;;;;5068172;28;20052;-74
2023/04/27 09:33:57;;;;;;;7.32;3.65;;;12.10;72.40;;;;;;5053456;28;20048;-74
2023/04/27 09:36:24;;;;;;;7.57;3.55;;;12.10;75.40;;;;;;5072106;28;20098;-74
2023/04/27 09:38:51;;;;;;;6.10;3.78;;;12.20;72.20;;;;;;5051900;28;20059;-74
2023/04/27 09:41:17;;;;;;;5.18;3.47;;;12.30;71.20;;;;;;5061952;28;20044;-74
2023/04/27 09:43:46;;;;;;;5.63;3.58;;;12.30;73.10;;;;;;5064427;28;20047;-74
2023/04/27 09:46:13;;;;;;;6.23;4.00;;;12.30;74.80;;;;;;5037847;28;20521;-74
2023/04/27 09:48:40;;;;;;;6.30;4.13;;;12.40;75.60;;;;;;5069492;28;20039;-74
2023/04/27 09:51:06;;;;;;;7.05;3.60;;;12.60;77.30;;;;;;5051315;28;20577;-73
2023/04/27 09:53:59;;;;;;;4.97;4.30;;;12.60;75.00;;;;;;5078499;28;20043;-73
2023/04/27 09:56:29;;;;;;;6.63;4.13;;;12.60;76.90;;;;;;5050948;28;20062;-73
2023/04/27 09:59:06;;;;;;;6.82;4.10;;;12.50;72.70;;;;;;5074082;28;20503;-73
2023/04/27 10:01:37;;;;;;;8.68;4.30;;;12.40;74.60;;;;;;5048999;28;20063;-72
2023/04/27 10:04:15;;;;;;;6.63;4.53;;;12.40;73.40;;;;;;5057078;28;20052;-73
2023/04/27 10:07:11;;;;;;;8.15;4.80;;;12.50;74.00;;;;;;5071177;28;20052;-72
2023/04/27 10:09:53;;;;;;;7.28;4.55;;;12.50;73.60;;;;;;5065779;28;20094;-73
2023/04/27 10:12:26;;;;;;;7.60;4.72;;;12.50;74.40;;;;;;5053616;28;20049;-73
2023/04/27 10:14:53;;;;;;;;;;;12.60;72.80;;;;;;5067534;28;20097;-73
2023/04/27 10:17:31;;;;;;;6.88;4.20;;;12.50;72.90;;;;;;5069263;28;20010;-72
2023/04/27 10:20:06;;;;;;;7.30;4.90;;;12.40;71.90;;;;;;5070350;28;20048;-73
2023/04/27 10:22:46;;;;;;;6.57;3.80;;;12.50;72.40;;;;;;5058669;28;20060;-73
2023/04/27 10:25:22;;;;;;;6.97;3.78;;;12.40;71.00;;;;;;5058315;28;20490;-73
2023/04/27 10:27:49;;;;;;;6.55;3.95;;;12.40;72.30;;;;;;5053751;28;20056;-73
2023/04/27 10:30:17;;;;;;;7.55;4.72;;;12.40;71.90;;;;;;5068424;28;20066;-73
2023/04/27 10:32:57;;;;;;;5.88;3.80;;;12.50;74.90;;;;;;5071491;28;20040;-72
2023/04/27 10:35:41;;;;;;;5.95;3.97;;;12.60;72.80;;;;;;5055278;28;20671;-73
2023/04/27 10:38:16;;;;;;;6.00;4.25;;;12.50;73.00;;;;;;5071542;28;20052;-73
2023/04/27 10:40:57;;;;;;;7.15;4.32;;;12.40;73.90;;;;;;5071532;28;20044;-73
2023/04/27 10:43:28;;;;;;;8.70;5.13;;;12.30;73.10;;;;;;5069434;28;20056;-72
2023/04/27 10:46:07;;;;;;;8.10;5.18;;;12.40;74.90;;;;;;5068637;28;20133;-73
2023/04/27 10:48:32;;;;;;;7.60;5.10;;;12.50;72.90;;;;;;5063697;28;20448;-73
2023/04/27 10:51:01;;;;;;;8.75;4.70;;;12.60;70.50;;;;;;5046165;28;20040;-74
2023/04/27 10:53:34;;;;;;;6.18;4.88;;;12.70;72.00;;;;;;5052482;28;20078;-72
2023/04/27 10:56:00;;;;;;;8.43;5.85;;;12.80;72.30;;;;;;5049964;28;20045;-73
2023/04/27 10:58:25;;;;;;;5.93;4.88;;;12.80;69.90;;;;;;5076732;28;20492;-73
2023/04/27 11:00:51;;;;;;;6.65;4.78;;;12.70;70.10;;;;;;5058450;28;20069;-73
2023/04/27 11:03:26;;;;;;;10.65;5.47;;;12.60;67.50;;;;;;5032144;28;20048;-73
2023/04/27 11:06:04;;;;;;;7.90;4.93;;;12.50;68.50;;;;;;5046674;28;20044;-73
2023/04/27 11:08:32;;;;;;;7.80;5.32;;;12.50;68.50;;;;;;5076697;28;20048;-74
2023/04/27 11:10:58;;;;;;;8.18;4.75;;;12.50;67.00;;;;;;5048345;28;20052;-73
2023/04/27 11:13:27;;;;;;;7.82;4.40;;;12.40;66.00;;;;;;5031761;28;20045;-73
2023/04/27 11:15:58;;;;;;;6.10;4.00;;;12.40;69.90;;;;;;5058739;28;20047;-73
2023/04/27 11:18:30;;;;;;;8.35;4.90;;;12.50;70.30;;;;;;5059185;28;20553;-73
2023/04/27 11:21:09;;;;;;;5.93;4.50;;;12.60;70.30;;;;;;5051849;28;20104;-73
2023/04/27 11:23:37;;;;;;;7.13;4.35;;;12.70;70.30;;;;;;5047425;28;20127;-73
2023/04/27 11:26:16;;;;;;;5.30;4.05;;;12.70;71.60;;;;;;5055130;28;20510;-73
2023/04/27 11:28:43;;;;;;;7.20;4.75;;;13.00;69.30;;;;;;5055587;28;20491;-73
2023/04/27 11:31:10;;;;;;;7.13;4.70;;;13.10;67.60;;;;;;5076471;28;20126;-73
2023/04/27 11:33:38;;;;;;;7.93;4.47;;;13.20;65.40;;;;;;5068774;28;20047;-73
2023/04/27 11:36:18;;;;;;;8.48;4.85;;;13.20;67.30;;;;;;5069862;28;20100;-72
2023/04/27 11:38:44;;;;;;;8.55;4.70;;;13.30;67.30;;;;;;5098174;28;20040;-73
2023/04/27 11:41:10;;;;;;;7.10;4.53;;;13.40;65.00;;;;;;5045305;28;20040;-73
2023/04/27 11:43:41;;;;;;;6.15;4.53;;;13.50;65.00;;;;;;5068335;28;20052;-73
2023/04/27 11:46:09;;;;;;;7.47;4.28;;;13.50;65.30;;;;;;5061033;28;20082;-73
2023/04/27 11:48:36;;;;;;;7.43;4.45;;;13.70;65.60;;;;;;5043660;28;20055;-73
2023/04/27 11:51:03;;;;;;;8.95;4.80;;;13.80;64.90;;;;;;5044312;28;20043;-72
2023/04/27 11:53:37;;;;;;;6.35;4.40;;;14.10;64.80;;;;;;5072704;28;20250;-74
2023/04/27 11:56:04;;;;;;;8.52;5.35;;;14.30;65.50;;;;;;5056460;28;20776;-74
2023/04/27 11:58:34;;;;;;;5.50;4.05;;;14.30;64.40;;;;;;5053547;28;20083;-74
2023/04/27 12:01:04;;;;;;;6.95;4.30;;;14.40;64.00;;;;;;5050367;28;20124;-74
2023/04/27 12:03:30;;;;;;;5.57;4.28;;;14.40;61.70;;;;;;5042495;28;20079;-74
2023/04/27 12:05:56;;;;;;;6.75;4.22;;;14.20;60.00;;;;;;5052451;28;20036;-74
2023/04/27 12:08:22;;;;;;;8.18;4.65;;;14.20;61.40;;;;;;5054366;28;20041;-75
2023/04/27 12:10:49;;;;;;;6.25;3.95;;;14.30;62.50;;;;;;5073736;28;20105;-74
2023/04/27 12:13:15;;;;;;;10.25;4.57;;;14.40;62.00;;;;;;5047286;28;20040;-75
2023/04/27 12:15:41;;;;;;;6.93;4.57;;;14.60;62.10;;;;;;5047612;28;20162;-74
2023/04/27 12:18:07;;;;;;;6.68;4.55;;;14.70;60.30;;;;;;5071512;28;20100;-74
2023/04/27 12:20:34;;;;;;;6.45;4.32;;;14.60;58.40;;;;;;5054836;28;20078;-74
2023/04/27 12:23:00;;;;;;;7.15;4.82;;;14.40;60.00;;;;;;5074054;28;20044;-75
2023/04/27 12:25:26;;;;;;;6.85;4.40;;;14.20;60.90;;;;;;5070935;28;20040;-74
2023/04/27 12:27:52;;;;;;;4.90;3.92;;;14.00;58.30;;;;;;5055550;28;20042;-75
2023/04/27 12:30:18;;;;;;;5.85;4.30;;;13.70;59.40;;;;;;5046651;28;20048;-75
2023/04/27 12:32:43;;;;;;;5.63;4.45;;;13.50;60.00;;;;;;5049089;28;20709;-74
2023/04/27 12:35:09;;;;;;;7.45;4.15;;;13.30;59.40;;;;;;5037511;28;20490;-75
2023/04/27 12:37:35;;;;;;;7.18;5.05;;;13.20;60.80;;;;;;5038143;28;20490;-75
2023/04/27 12:40:05;;;;;;;6.72;4.38;;;13.20;62.20;;;;;;5057779;28;20503;-75
2023/04/27 12:42:31;;;;;;;9.48;4.75;;;13.10;61.40;;;;;;5067849;28;20036;-73
2023/04/27 12:44:57;;;;;;;6.15;3.97;;;13.00;61.50;;;;;;5047929;28;20478;-72
2023/04/27 12:47:23;;;;;;;6.47;4.13;;;13.10;62.10;;;;;;5055401;28;20062;-73